e-Mail: Password: Lost your password? Click here. - Register a new user

c h a v e z j u a r e z . c o m

Weather - Tiempo - Wetter - Temps

METAR DATA MMMX (Mexico City)

Mexico City / Licenci, Mexico (MMMX) 19-26N 099-06W
Feb 23, 2018 - 03:43 PM EST / 2018.02.23 2043 UTC
Wind: from the E (100 degrees) at 6 MPH (5 KT):0
Visibility: 5 mile(s):0
Sky conditions: partly cloudy
Weather: Towering cumulus clouds observed
Temperature: 73 F (23 C)
Dew Point: 41 F (5 C)
Relative Humidity: 31%
Pressure (altimeter): 30.28 in. Hg (1025 hPa)
Pressure tendency: 0.09 inches (3.0 hPa) lower than three hours ago
ob: MMMX 232043Z 10005KT 5SM FEW020TCU SCT080 23/05 A3028 NOSIG RMK SLP074 57030 954 8/260 HZY
cycle: 20

Mexico City

St. Prex




Current weather alarms for Switzerland


www.wetteralarm.ch